createdAt,value
2019-01-16T00:00:49.197Z,269.10
2019-01-16T00:01:49.213Z,267.70
2019-01-16T00:02:49.174Z,266.90
2019-01-16T00:03:49.166Z,266.40
2019-01-16T00:04:49.157Z,263.30
2019-01-16T00:05:49.141Z,261.40
2019-01-16T00:06:49.146Z,256.80
2019-01-16T00:07:49.125Z,256.70
2019-01-16T00:08:49.109Z,257.00
2019-01-16T00:09:49.096Z,254.90
2019-01-16T00:10:49.086Z,251.80
2019-01-16T00:11:49.114Z,254.10
2019-01-16T00:12:49.063Z,256.20
2019-01-16T00:13:49.064Z,250.00
2019-01-16T00:14:49.041Z,248.60
2019-01-16T00:15:49.030Z,249.50
2019-01-16T00:16:49.022Z,242.50
2019-01-16T00:17:49.025Z,246.00
2019-01-16T00:18:48.996Z,242.80
2019-01-16T00:19:48.989Z,238.80
2019-01-16T00:20:48.975Z,238.50
2019-01-16T00:21:48.964Z,238.60
2019-01-16T00:22:48.968Z,237.60
2019-01-16T00:23:48.941Z,234.30
2019-01-16T00:24:48.931Z,238.20
2019-01-16T00:25:48.927Z,231.50
2019-01-16T00:26:48.910Z,229.70
2019-01-16T00:27:48.914Z,230.60
2019-01-16T00:28:48.885Z,229.50
2019-01-16T00:29:48.875Z,228.20
2019-01-16T00:30:48.861Z,225.90
2019-01-16T00:31:48.866Z,226.10
2019-01-16T00:32:48.858Z,224.50
2019-01-16T00:33:48.831Z,219.80
2019-01-16T00:34:48.819Z,221.80
2019-01-16T00:35:48.808Z,217.10
2019-01-16T00:36:48.796Z,215.70
2019-01-16T00:37:48.806Z,215.90
2019-01-16T00:38:48.774Z,218.60
2019-01-16T00:39:48.763Z,212.80
2019-01-16T00:40:48.751Z,217.60
2019-01-16T00:41:48.742Z,211.40
2019-01-16T00:42:48.761Z,213.20
2019-01-16T00:43:48.726Z,210.30
2019-01-16T00:44:48.710Z,211.10
2019-01-16T00:45:48.697Z,210.80
2019-01-16T00:46:48.684Z,211.30
2019-01-16T00:47:48.673Z,205.20
2019-01-16T00:48:48.677Z,208.10
2019-01-16T00:49:48.659Z,201.10
2019-01-16T00:50:48.640Z,203.60
2019-01-16T00:51:48.628Z,196.50
2019-01-16T00:52:48.618Z,199.10
2019-01-16T00:53:48.621Z,196.80
2019-01-16T00:54:48.597Z,197.80
2019-01-16T00:55:48.596Z,192.50
2019-01-16T00:56:48.573Z,194.80
2019-01-16T00:57:48.562Z,191.00
2019-01-16T00:58:48.567Z,191.80
2019-01-16T00:59:48.538Z,190.50
2019-01-16T01:00:48.528Z,186.70
2019-01-16T01:01:48.525Z,184.60
2019-01-16T01:02:48.505Z,185.50
2019-01-16T01:03:48.510Z,182.50
2019-01-16T01:04:48.482Z,182.70
2019-01-16T01:05:48.472Z,182.30
2019-01-16T01:06:48.460Z,179.00
2019-01-16T01:07:48.462Z,177.80
2019-01-16T01:08:48.454Z,176.00
2019-01-16T01:09:48.428Z,177.30
2019-01-16T01:10:48.416Z,179.10
2019-01-16T01:11:48.406Z,171.20
2019-01-16T01:12:48.393Z,175.30
2019-01-16T01:13:48.409Z,171.10
2019-01-16T01:14:48.375Z,171.80
2019-01-16T01:15:48.359Z,171.20
2019-01-16T01:16:48.347Z,168.50
2019-01-16T01:17:48.337Z,167.90
2019-01-16T01:18:48.365Z,170.80
2019-01-16T01:19:48.324Z,167.70
2019-01-16T01:20:48.304Z,166.00
2019-01-16T01:21:48.296Z,169.20
2019-01-16T01:22:48.283Z,167.70
2019-01-16T01:23:48.270Z,163.90
2019-01-16T01:24:48.276Z,163.80
2019-01-16T01:25:48.259Z,162.50
2019-01-16T01:26:48.239Z,159.30
2019-01-16T01:27:48.226Z,161.30
2019-01-16T01:28:48.215Z,160.40
2019-01-16T01:29:48.220Z,159.20
2019-01-16T01:30:48.193Z,157.20
2019-01-16T01:31:48.191Z,157.40
2019-01-16T01:32:48.170Z,157.10
2019-01-16T01:33:48.158Z,156.10
2019-01-16T01:34:48.166Z,155.40
2019-01-16T01:35:48.137Z,154.80
2019-01-16T01:36:48.128Z,152.00
2019-01-16T01:37:48.127Z,152.20
2019-01-16T01:38:48.104Z,150.50
2019-01-16T01:39:48.110Z,150.80
2019-01-16T01:40:48.081Z,152.00
2019-01-16T01:41:48.068Z,150.10
2019-01-16T01:42:48.058Z,149.60
2019-01-16T01:43:48.059Z,146.50
2019-01-16T01:44:48.054Z,149.10
2019-01-16T01:45:48.024Z,147.60
2019-01-16T01:46:48.013Z,147.30
2019-01-16T01:47:48.003Z,146.80
2019-01-16T01:48:48.001Z,145.30
2019-01-16T01:49:47.980Z,143.70
2019-01-16T01:50:47.988Z,146.60
2019-01-16T01:51:47.958Z,142.60
2019-01-16T01:52:47.948Z,142.00
2019-01-16T01:53:47.936Z,143.50
2019-01-16T01:54:47.935Z,142.20
2019-01-16T01:55:47.935Z,141.80
2019-01-16T01:56:47.902Z,139.90
2019-01-16T01:57:47.894Z,140.60
2019-01-16T01:58:47.882Z,139.70
2019-01-16T01:59:47.871Z,139.20
2019-01-16T02:00:47.886Z,135.70
2019-01-16T02:01:47.849Z,136.70
2019-01-16T02:02:47.836Z,134.80
2019-01-16T02:03:47.825Z,135.00
2019-01-16T02:04:47.817Z,132.00
2019-01-16T02:05:47.817Z,133.20
2019-01-16T02:06:47.813Z,131.50
2019-01-16T02:07:47.779Z,131.70
2019-01-16T02:08:47.837Z,130.50
2019-01-16T02:09:47.758Z,131.70
2019-01-16T02:10:47.761Z,129.30
2019-01-16T02:11:47.734Z,128.30
2019-01-16T02:12:47.731Z,127.30
2019-01-16T02:13:47.713Z,127.50
2019-01-16T02:14:47.700Z,128.00
2019-01-16T02:15:47.718Z,125.40
2019-01-16T02:16:47.685Z,124.90
2019-01-16T02:17:47.675Z,124.20
2019-01-16T02:18:47.677Z,122.50
2019-01-16T02:19:47.644Z,122.30
2019-01-16T02:20:47.634Z,121.80
2019-01-16T02:21:47.638Z,120.60
2019-01-16T02:22:47.614Z,119.10
2019-01-16T02:23:47.601Z,118.60
2019-01-16T02:24:47.598Z,118.60
2019-01-16T02:25:47.577Z,119.80
2019-01-16T02:26:47.589Z,118.40
2019-01-16T02:27:47.558Z,118.50
2019-01-16T02:28:47.546Z,118.60
2019-01-16T02:29:47.555Z,117.10
2019-01-16T02:30:47.538Z,113.80
2019-01-16T02:31:47.546Z,117.20
2019-01-16T02:32:47.500Z,115.20
2019-01-16T02:33:47.497Z,115.70
2019-01-16T02:34:47.484Z,114.40
2019-01-16T02:35:47.466Z,113.30
2019-01-16T02:36:47.465Z,114.00
2019-01-16T02:37:47.462Z,112.90
2019-01-16T02:38:47.439Z,113.00
2019-01-16T02:39:47.431Z,110.20
2019-01-16T02:40:47.413Z,111.60
2019-01-16T02:41:47.406Z,109.60
2019-01-16T02:42:47.417Z,111.20
2019-01-16T02:43:47.379Z,111.10
2019-01-16T02:44:47.369Z,110.50
2019-01-16T02:45:47.357Z,108.50
2019-01-16T02:46:47.345Z,108.90
2019-01-16T02:47:47.367Z,107.30
2019-01-16T02:48:55.658Z,108.40
2019-01-16T02:49:48.309Z,107.80
2019-01-16T02:50:47.298Z,106.10
2019-01-16T02:51:47.287Z,104.60
2019-01-16T02:52:47.277Z,106.20
2019-01-16T02:53:47.288Z,104.00
2019-01-16T02:54:47.273Z,103.50
2019-01-16T02:55:47.241Z,102.50
2019-01-16T02:56:47.230Z,101.40
2019-01-16T02:57:47.220Z,100.20
2019-01-16T02:58:47.225Z,101.60
2019-01-16T02:59:47.196Z,103.90
2019-01-16T03:00:47.201Z,100.10
2019-01-16T03:01:47.174Z,99.10
2019-01-16T03:02:47.165Z,98.90
2019-01-16T03:03:47.171Z,97.80
2019-01-16T03:04:47.143Z,96.00
2019-01-16T03:05:47.155Z,97.30
2019-01-16T03:06:47.124Z,96.40
2019-01-16T03:07:47.106Z,97.80
2019-01-16T03:08:47.110Z,96.70
2019-01-16T03:09:47.083Z,94.90
2019-01-16T03:10:47.072Z,94.50
2019-01-16T03:11:47.059Z,93.70
2019-01-16T03:12:47.054Z,94.40
2019-01-16T03:13:47.093Z,92.80
2019-01-16T03:14:47.028Z,91.50
2019-01-16T03:15:47.020Z,92.50
2019-01-16T03:16:47.004Z,92.30
2019-01-16T03:17:46.995Z,91.90
2019-01-16T03:18:47.031Z,91.20
2019-01-16T03:19:46.975Z,90.20
2019-01-16T03:20:46.957Z,90.50
2019-01-16T03:21:46.946Z,88.10
2019-01-16T03:22:46.939Z,87.80
2019-01-16T03:23:46.939Z,88.50
2019-01-16T03:24:46.924Z,88.40
2019-01-16T03:25:46.902Z,89.00
2019-01-16T03:26:46.890Z,88.50
2019-01-16T03:27:46.881Z,87.20
2019-01-16T03:28:46.887Z,87.10
2019-01-16T03:29:46.864Z,83.90
2019-01-16T03:30:46.877Z,83.50
2019-01-16T03:31:46.842Z,84.10
2019-01-16T03:32:46.827Z,84.20
2019-01-16T03:33:46.830Z,82.70
2019-01-16T03:34:46.804Z,82.80
2019-01-16T03:35:46.790Z,83.10
2019-01-16T03:36:46.787Z,82.80
2019-01-16T03:37:46.771Z,81.70
2019-01-16T03:38:46.781Z,81.90
2019-01-16T03:39:46.751Z,80.00
2019-01-16T03:40:46.733Z,81.20
2019-01-16T03:41:46.722Z,78.10
2019-01-16T03:42:46.725Z,79.50
2019-01-16T03:43:46.700Z,78.60
2019-01-16T03:44:46.711Z,78.20
2019-01-16T03:45:46.676Z,78.70
2019-01-16T03:46:46.668Z,77.40
2019-01-16T03:47:46.656Z,77.50
2019-01-16T03:48:46.654Z,78.00
2019-01-16T03:49:46.649Z,78.30
2019-01-16T03:50:46.627Z,77.60
2019-01-16T03:51:46.615Z,73.90
2019-01-16T03:52:46.602Z,77.30
2019-01-16T03:53:46.586Z,75.40
2019-01-16T03:54:46.620Z,74.70
2019-01-16T03:55:46.563Z,73.40
2019-01-16T03:56:46.561Z,72.70
2019-01-16T03:57:46.540Z,71.60
2019-01-16T03:58:46.531Z,72.50
2019-01-16T03:59:46.536Z,71.00
2019-01-16T04:00:46.530Z,71.00
2019-01-16T04:01:46.496Z,71.60
2019-01-16T04:02:46.491Z,72.30
2019-01-16T04:03:46.479Z,71.40
2019-01-16T04:04:46.476Z,70.10
2019-01-16T04:05:46.451Z,70.00
2019-01-16T04:06:46.452Z,68.90
2019-01-16T04:07:46.430Z,69.00
2019-01-16T04:08:46.422Z,69.00
2019-01-16T04:09:46.424Z,69.00
2019-01-16T04:10:46.393Z,68.30
2019-01-16T04:11:46.382Z,66.90
2019-01-16T04:12:46.382Z,66.40
2019-01-16T04:13:46.361Z,66.60
2019-01-16T04:14:46.379Z,66.90
2019-01-16T04:15:46.336Z,66.70
2019-01-16T04:16:46.325Z,66.90
2019-01-16T04:17:46.315Z,65.20
2019-01-16T04:18:46.311Z,64.10
2019-01-16T04:19:46.298Z,63.80
2019-01-16T04:20:46.303Z,62.40
2019-01-16T04:21:46.319Z,64.30
2019-01-16T04:22:46.262Z,62.50
2019-01-16T04:23:46.247Z,61.80
2019-01-16T04:24:46.245Z,60.70
2019-01-16T04:25:46.332Z,61.00
2019-01-16T04:26:46.213Z,61.30
2019-01-16T04:27:46.203Z,60.10
2019-01-16T04:28:46.192Z,60.90
2019-01-16T04:29:46.181Z,60.40
2019-01-16T04:30:46.212Z,59.80
2019-01-16T04:31:46.159Z,60.30
2019-01-16T04:32:46.150Z,60.00
2019-01-16T04:33:46.143Z,58.90
2019-01-16T04:34:46.123Z,58.80
2019-01-16T04:35:46.130Z,58.00
2019-01-16T04:36:46.112Z,58.40
2019-01-16T04:37:46.097Z,58.00
2019-01-16T04:38:46.082Z,58.20
2019-01-16T04:39:46.074Z,57.40
2019-01-16T04:40:46.074Z,58.30
2019-01-16T04:41:46.056Z,57.60
2019-01-16T04:42:46.042Z,56.90
2019-01-16T04:43:46.030Z,57.00
2019-01-16T04:44:46.016Z,56.00
2019-01-16T04:45:46.033Z,54.90
2019-01-16T04:46:45.989Z,56.60
2019-01-16T04:47:45.979Z,56.00
2019-01-16T04:48:45.975Z,55.80
2019-01-16T04:49:45.956Z,54.70
2019-01-16T04:50:45.952Z,56.60
2019-01-16T04:51:45.948Z,55.40
2019-01-16T04:52:45.921Z,54.50
2019-01-16T04:53:45.912Z,54.80
2019-01-16T04:54:45.909Z,53.40
2019-01-16T04:55:45.946Z,53.30
2019-01-16T04:56:45.912Z,53.00
2019-01-16T04:57:45.868Z,53.60
2019-01-16T04:58:45.861Z,52.40
2019-01-16T04:59:45.845Z,51.70
2019-01-16T05:00:45.848Z,52.20
2019-01-16T05:01:45.823Z,51.20
2019-01-16T05:02:45.833Z,52.00
2019-01-16T05:03:45.800Z,51.30
2019-01-16T05:04:45.786Z,51.80
2019-01-16T05:05:45.783Z,51.20
2019-01-16T05:06:45.779Z,50.30
2019-01-16T05:07:45.769Z,50.10
2019-01-16T05:08:45.748Z,50.60
2019-01-16T05:09:45.732Z,48.90
2019-01-16T05:10:45.727Z,51.40
2019-01-16T05:11:45.709Z,48.30
2019-01-16T05:12:45.730Z,49.90
2019-01-16T05:13:45.687Z,47.70
2019-01-16T05:14:45.686Z,48.30
2019-01-16T05:15:45.670Z,49.10
2019-01-16T05:16:45.659Z,47.40
2019-01-16T05:17:45.936Z,47.60
2019-01-16T05:18:45.641Z,47.10
2019-01-16T05:19:45.627Z,47.20
2019-01-16T05:20:45.611Z,47.30
2019-01-16T05:21:45.600Z,45.90
2019-01-16T05:22:45.585Z,47.30
2019-01-16T05:23:45.590Z,45.70
2019-01-16T05:24:45.576Z,45.90
2019-01-16T05:25:45.554Z,46.80
2019-01-16T05:26:45.541Z,45.30
2019-01-16T05:27:45.529Z,44.20
2019-01-16T05:28:45.537Z,45.20
2019-01-16T05:29:45.511Z,44.80
2019-01-16T05:30:45.511Z,45.00
2019-01-16T05:31:45.492Z,43.50
2019-01-16T05:32:45.475Z,43.60
2019-01-16T05:33:45.479Z,43.80
2019-01-16T05:34:45.457Z,44.50
2019-01-16T05:35:45.441Z,44.50
2019-01-16T05:36:45.448Z,43.40
2019-01-16T05:37:45.418Z,42.40
2019-01-16T05:38:45.446Z,43.80
2019-01-16T05:39:45.398Z,43.70
2019-01-16T05:40:45.387Z,43.30
2019-01-16T05:41:45.392Z,43.20
2019-01-16T05:42:45.377Z,43.20
2019-01-16T05:43:45.353Z,43.10
2019-01-16T05:44:45.374Z,43.50
2019-01-16T05:45:45.336Z,43.00
2019-01-16T05:46:45.318Z,42.30
2019-01-16T05:47:45.318Z,41.90
2019-01-16T05:48:45.297Z,41.60
2019-01-16T05:49:46.714Z,41.50
2019-01-16T05:50:45.281Z,42.10
2019-01-16T05:51:45.266Z,40.70
2019-01-16T05:52:45.257Z,42.10
2019-01-16T05:53:45.250Z,41.30
2019-01-16T05:54:45.245Z,40.30
2019-01-16T05:55:45.217Z,41.40
2019-01-16T05:56:45.209Z,39.90
2019-01-16T05:57:45.194Z,41.90
2019-01-16T05:58:45.194Z,42.20
2019-01-16T05:59:45.195Z,40.40
2019-01-16T06:00:45.163Z,38.90
2019-01-16T06:01:45.149Z,40.30
2019-01-16T06:02:45.141Z,40.80
2019-01-16T06:03:45.133Z,39.80
2019-01-16T06:04:45.149Z,39.60
2019-01-16T06:05:45.107Z,39.30
2019-01-16T06:06:45.100Z,39.40
2019-01-16T06:07:45.089Z,38.10
2019-01-16T06:08:45.071Z,40.20
2019-01-16T06:09:45.086Z,39.00
2019-01-16T06:10:45.069Z,39.70
2019-01-16T06:11:45.047Z,38.70
2019-01-16T06:12:45.054Z,38.80
2019-01-16T06:13:45.020Z,40.00
2019-01-16T06:14:45.041Z,38.70
2019-01-16T06:15:45.012Z,37.30
2019-01-16T06:16:44.980Z,36.40
2019-01-16T06:17:44.970Z,36.80
2019-01-16T06:18:44.978Z,37.70
2019-01-16T06:19:44.952Z,35.90
2019-01-16T06:20:44.961Z,36.40
2019-01-16T06:21:44.930Z,36.00
2019-01-16T06:22:44.911Z,36.00
2019-01-16T06:23:44.916Z,35.80
2019-01-16T06:24:44.898Z,35.90
2019-01-16T06:25:44.906Z,35.10
2019-01-16T06:26:44.875Z,36.20
2019-01-16T06:27:44.856Z,35.20
2019-01-16T06:28:44.850Z,34.70
2019-01-16T06:29:44.833Z,35.90
2019-01-16T06:30:44.836Z,35.00
2019-01-16T06:31:44.816Z,34.50
2019-01-16T06:32:44.804Z,34.80
2019-01-16T06:33:44.792Z,33.60
2019-01-16T06:34:44.778Z,34.00
2019-01-16T06:35:44.814Z,34.80
2019-01-16T06:36:44.753Z,34.40
2019-01-16T06:37:44.750Z,33.70
2019-01-16T06:38:44.798Z,34.30
2019-01-16T06:39:44.719Z,33.30
2019-01-16T06:40:44.710Z,33.50
2019-01-16T06:41:44.725Z,33.30
2019-01-16T06:42:44.683Z,33.20
2019-01-16T06:43:44.682Z,34.20
2019-01-16T06:44:44.674Z,33.00
2019-01-16T06:45:44.705Z,33.60
2019-01-16T06:46:44.663Z,33.00
2019-01-16T06:47:44.636Z,33.00
2019-01-16T06:48:44.618Z,33.40
2019-01-16T06:49:44.612Z,32.20
2019-01-16T06:50:44.610Z,32.70
2019-01-16T06:51:44.604Z,31.70
2019-01-16T06:52:44.580Z,31.90
2019-01-16T06:53:44.559Z,32.20
2019-01-16T06:54:44.561Z,32.20
2019-01-16T06:55:44.537Z,32.10
2019-01-16T06:56:44.556Z,32.30
2019-01-16T06:57:44.542Z,31.70
2019-01-16T06:58:44.511Z,32.00
2019-01-16T06:59:44.490Z,31.60
2019-01-16T07:00:44.499Z,31.00
2019-01-16T07:01:44.468Z,31.60
2019-01-16T07:02:44.480Z,30.80
2019-01-16T07:03:44.445Z,32.10
2019-01-16T07:04:44.433Z,30.00
2019-01-16T07:05:44.428Z,30.40
2019-01-16T07:06:44.411Z,30.50
2019-01-16T07:07:44.421Z,29.90
2019-01-16T07:08:44.397Z,31.00
2019-01-16T07:09:44.383Z,29.60
2019-01-16T07:10:44.364Z,30.60
2019-01-16T07:11:44.364Z,29.90
2019-01-16T07:12:44.358Z,30.60
2019-01-16T07:13:44.331Z,30.40
2019-01-16T07:14:44.322Z,29.70
2019-01-16T07:15:44.316Z,29.10
2019-01-16T07:16:44.304Z,29.00
2019-01-16T07:17:44.320Z,29.10
2019-01-16T07:18:44.274Z,28.90
2019-01-16T07:19:44.268Z,29.00
2019-01-16T07:20:44.252Z,29.50
2019-01-16T07:21:44.240Z,29.10
2019-01-16T07:22:44.245Z,28.80
2019-01-16T07:23:44.226Z,28.60
2019-01-16T07:24:44.274Z,28.30
2019-01-16T07:25:44.196Z,29.10
2019-01-16T07:26:44.192Z,29.30
2019-01-16T07:27:44.191Z,28.80
2019-01-16T07:28:44.160Z,27.60
2019-01-16T07:29:44.164Z,28.90
2019-01-16T07:30:44.146Z,27.80
2019-01-16T07:31:44.130Z,27.80
2019-01-16T07:32:44.145Z,27.90
2019-01-16T07:33:44.106Z,28.10
2019-01-16T07:34:44.094Z,27.60
2019-01-16T07:35:44.095Z,27.30
2019-01-16T07:36:44.072Z,28.10
2019-01-16T07:37:44.063Z,27.40
2019-01-16T07:38:44.067Z,27.20
2019-01-16T07:39:44.038Z,27.90
2019-01-16T07:40:44.032Z,26.60
2019-01-16T07:41:44.029Z,27.30
2019-01-16T07:42:47.023Z,28.00
2019-01-16T07:43:44.008Z,27.30
2019-01-16T07:44:43.992Z,27.20
2019-01-16T07:45:43.971Z,27.20
2019-01-16T07:46:43.967Z,27.30
2019-01-16T07:47:43.957Z,27.00
2019-01-16T07:48:43.961Z,26.60
2019-01-16T07:49:43.926Z,26.40
2019-01-16T07:50:43.916Z,26.30
2019-01-16T07:51:43.905Z,26.20
2019-01-16T07:52:43.892Z,26.40
2019-01-16T07:53:43.911Z,26.90
2019-01-16T07:54:43.871Z,26.00
2019-01-16T07:55:43.859Z,26.00
2019-01-16T07:56:43.853Z,25.20
2019-01-16T07:57:43.836Z,25.50
2019-01-16T07:58:43.842Z,25.80
2019-01-16T07:59:43.822Z,25.30
2019-01-16T08:00:43.811Z,25.50
2019-01-16T08:01:43.799Z,24.90
2019-01-16T08:02:43.781Z,25.20
2019-01-16T08:03:43.785Z,25.20
2019-01-16T08:04:43.763Z,25.60
2019-01-16T08:05:43.755Z,25.20
2019-01-16T08:06:43.742Z,24.40
2019-01-16T08:07:43.728Z,24.90
2019-01-16T08:08:43.736Z,25.10
2019-01-16T08:09:43.705Z,24.60
2019-01-16T08:10:43.693Z,25.40
2019-01-16T08:11:43.688Z,24.40
2019-01-16T08:12:43.678Z,23.80
2019-01-16T08:13:43.676Z,24.20
2019-01-16T08:14:43.654Z,24.00
2019-01-16T08:15:43.637Z,24.00
2019-01-16T08:16:43.629Z,23.50
2019-01-16T08:17:43.637Z,24.20
2019-01-16T08:18:43.648Z,23.50
2019-01-16T08:19:43.595Z,23.70
2019-01-16T08:20:43.587Z,23.70
2019-01-16T08:21:43.577Z,22.90
2019-01-16T08:22:43.558Z,23.60
2019-01-16T08:23:43.556Z,23.80
2019-01-16T08:24:43.551Z,23.50
2019-01-16T08:25:43.524Z,23.60
2019-01-16T08:26:43.519Z,23.70
2019-01-16T08:27:43.503Z,22.80
2019-01-16T08:28:43.493Z,23.20
2019-01-16T08:29:43.512Z,22.90
2019-01-16T08:30:43.475Z,23.20
2019-01-16T08:31:43.457Z,22.80
2019-01-16T08:32:43.445Z,22.90
2019-01-16T08:33:43.436Z,22.80
2019-01-16T08:34:43.439Z,22.60
2019-01-16T08:35:43.428Z,22.50
2019-01-16T08:36:43.403Z,22.10
2019-01-16T08:37:43.391Z,21.90
2019-01-16T08:38:43.379Z,22.40
2019-01-16T08:39:43.385Z,22.30
2019-01-16T08:40:43.360Z,22.90
2019-01-16T08:41:43.352Z,22.60
2019-01-16T08:42:43.341Z,22.40
2019-01-16T08:43:43.324Z,21.70
2019-01-16T08:44:43.336Z,21.60
2019-01-16T08:45:43.301Z,21.80
2019-01-16T08:46:43.295Z,19.50
2019-01-16T08:47:43.290Z,17.50
2019-01-16T08:48:43.319Z,12.90
2019-01-16T08:49:43.290Z,12.10
2019-01-16T08:50:43.322Z,12.70
2019-01-16T08:51:43.244Z,11.40
2019-01-16T08:52:43.230Z,12.00
2019-01-16T08:53:43.212Z,11.90
2019-01-16T08:54:43.223Z,10.50
2019-01-16T08:55:43.191Z,9.20
2019-01-16T08:56:43.178Z,9.20
2019-01-16T08:57:43.167Z,9.00
2019-01-16T08:58:43.157Z,8.70
2019-01-16T08:59:43.184Z,8.50
2019-01-16T09:00:43.151Z,8.00
2019-01-16T09:01:43.125Z,8.00
2019-01-16T09:02:43.112Z,7.60
2019-01-16T09:03:43.101Z,7.20
2019-01-16T09:04:43.088Z,6.80
2019-01-16T09:05:43.100Z,6.20
2019-01-16T09:06:43.077Z,6.70
2019-01-16T09:07:43.064Z,7.40
2019-01-16T09:08:43.045Z,7.90
2019-01-16T09:09:43.036Z,8.00
2019-01-16T09:10:43.068Z,7.80
2019-01-16T09:11:43.200Z,7.10
2019-01-16T09:12:43.007Z,6.60
2019-01-16T09:13:42.990Z,6.90
2019-01-16T09:14:42.981Z,6.70
2019-01-16T09:15:42.976Z,7.00
2019-01-16T09:16:42.977Z,6.50
2019-01-16T09:17:42.949Z,6.40
2019-01-16T09:18:42.933Z,6.50
2019-01-16T09:19:42.923Z,6.50
2019-01-16T09:20:42.920Z,6.60
2019-01-16T09:21:42.923Z,6.70
2019-01-16T09:22:42.897Z,6.30
2019-01-16T09:23:42.884Z,6.30
2019-01-16T09:24:42.867Z,5.70
2019-01-16T09:25:42.858Z,5.30
2019-01-16T09:26:42.877Z,5.50
2019-01-16T09:27:42.836Z,5.80
2019-01-16T09:28:42.823Z,5.70
2019-01-16T09:29:42.815Z,5.40
2019-01-16T09:30:42.801Z,5.70
2019-01-16T09:31:42.812Z,5.50
2019-01-16T09:32:42.794Z,5.40
2019-01-16T09:33:42.770Z,5.30
2019-01-16T09:34:42.756Z,5.60
2019-01-16T09:35:42.755Z,4.80
2019-01-16T09:36:42.749Z,5.50
2019-01-16T09:37:42.723Z,4.70
2019-01-16T09:38:42.727Z,4.80
2019-01-16T09:39:42.701Z,4.80
2019-01-16T09:40:42.689Z,4.80
2019-01-16T09:41:42.713Z,4.20
2019-01-16T09:42:42.678Z,4.50
2019-01-16T09:43:42.658Z,4.10
2019-01-16T09:44:42.658Z,4.50
2019-01-16T09:45:42.636Z,4.10
2019-01-16T09:46:42.626Z,4.20
2019-01-16T09:47:42.636Z,4.20
2019-01-16T09:48:42.611Z,4.10
2019-01-16T09:49:42.591Z,4.20
2019-01-16T09:50:47.797Z,4.00
2019-01-16T09:51:43.573Z,4.20
2019-01-16T09:52:42.581Z,3.90
2019-01-16T09:53:42.546Z,4.20
2019-01-16T09:54:42.536Z,4.10
2019-01-16T09:55:42.528Z,3.80
2019-01-16T09:56:42.530Z,3.70
2019-01-16T09:57:42.541Z,3.80
2019-01-16T09:58:42.492Z,3.70
2019-01-16T09:59:42.488Z,3.70
2019-01-16T10:00:42.477Z,3.50
2019-01-16T10:01:42.460Z,3.90
2019-01-16T10:02:42.456Z,3.60
2019-01-16T10:03:42.455Z,3.90
2019-01-16T10:04:42.438Z,3.70
2019-01-16T10:05:42.416Z,3.70
2019-01-16T10:06:42.413Z,3.70
2019-01-16T10:07:42.398Z,3.90
2019-01-16T10:08:42.418Z,3.40
2019-01-16T10:09:42.377Z,3.60
2019-01-16T10:10:42.363Z,3.20
2019-01-16T10:11:42.358Z,3.60
2019-01-16T10:12:42.338Z,3.40
2019-01-16T10:13:42.343Z,3.30
2019-01-16T10:14:42.317Z,2.90
2019-01-16T10:15:42.319Z,3.00
2019-01-16T10:16:42.299Z,3.10
2019-01-16T10:17:42.284Z,2.60
2019-01-16T10:18:42.287Z,2.70
2019-01-16T10:19:42.271Z,2.80
2019-01-16T10:20:46.307Z,2.90
2019-01-16T10:21:42.244Z,3.20
2019-01-16T10:22:42.228Z,2.70
2019-01-16T10:23:42.288Z,2.80
2019-01-16T10:24:42.211Z,2.60
2019-01-16T10:25:42.202Z,2.70
2019-01-16T10:26:42.185Z,2.90
2019-01-16T10:27:42.184Z,3.10
2019-01-16T10:28:42.198Z,2.70
2019-01-16T10:29:42.161Z,2.40
2019-01-16T10:30:42.146Z,3.00
2019-01-16T10:31:42.194Z,2.50
2019-01-16T10:32:42.120Z,2.70
2019-01-16T10:33:42.109Z,2.60
2019-01-16T10:34:42.110Z,2.50
2019-01-16T10:35:42.085Z,2.80
2019-01-16T10:36:42.089Z,2.60
2019-01-16T10:37:42.066Z,2.60
2019-01-16T10:38:42.053Z,2.30
2019-01-16T10:39:42.067Z,2.50
2019-01-16T10:40:42.031Z,2.30
2019-01-16T10:41:42.024Z,2.60
2019-01-16T10:42:42.018Z,2.60
2019-01-16T10:43:41.998Z,2.70
2019-01-16T10:44:42.004Z,2.80
2019-01-16T10:45:41.987Z,2.50
2019-01-16T10:46:41.968Z,2.30
2019-01-16T10:47:41.955Z,2.40
2019-01-16T10:48:49.545Z,2.30
2019-01-16T10:49:42.963Z,2.50
2019-01-16T10:50:41.928Z,2.30
2019-01-16T10:51:41.911Z,2.50
2019-01-16T10:52:41.901Z,2.50
2019-01-16T10:53:41.903Z,2.40
2019-01-16T10:54:41.880Z,2.40
2019-01-16T10:55:41.890Z,2.30
2019-01-16T10:56:41.882Z,2.20
2019-01-16T10:57:41.849Z,2.30
2019-01-16T10:58:41.842Z,2.40
2019-01-16T10:59:41.825Z,2.20
2019-01-16T11:00:41.837Z,2.10
2019-01-16T11:01:41.812Z,2.70
2019-01-16T11:02:41.809Z,2.40
2019-01-16T11:03:41.789Z,2.40
2019-01-16T11:04:41.770Z,2.30
2019-01-16T11:05:41.783Z,2.30
2019-01-16T11:06:41.755Z,2.00
2019-01-16T11:07:41.738Z,2.10
2019-01-16T11:08:41.738Z,2.40
2019-01-16T11:09:41.717Z,2.40
2019-01-16T11:10:41.726Z,2.50
2019-01-16T11:11:41.695Z,2.20
2019-01-16T11:12:41.682Z,2.50
2019-01-16T11:13:41.678Z,2.30
2019-01-16T11:14:41.663Z,2.20
2019-01-16T11:15:41.673Z,2.50
2019-01-16T11:16:41.643Z,2.40
2019-01-16T11:17:41.627Z,2.60
2019-01-16T11:18:41.615Z,2.40
2019-01-16T11:19:41.606Z,2.50
2019-01-16T11:20:41.610Z,2.20
2019-01-16T11:21:41.591Z,2.50
2019-01-16T11:22:41.570Z,2.10
2019-01-16T11:23:41.559Z,2.50
2019-01-16T11:24:41.549Z,2.30
2019-01-16T11:25:41.571Z,2.60
2019-01-16T11:26:41.549Z,2.00
2019-01-16T11:27:41.523Z,2.40
2019-01-16T11:28:41.503Z,2.30
2019-01-16T11:29:41.491Z,2.30
2019-01-16T11:30:41.480Z,2.40
2019-01-16T11:31:41.487Z,2.30
2019-01-16T11:32:41.465Z,2.80
2019-01-16T11:33:41.454Z,2.90
2019-01-16T11:34:41.437Z,2.70
2019-01-16T11:35:41.433Z,3.10
2019-01-16T11:36:41.428Z,3.00
2019-01-16T11:37:41.403Z,3.50
2019-01-16T11:38:41.399Z,3.60
2019-01-16T11:39:41.396Z,3.10
2019-01-16T11:40:41.368Z,3.30
2019-01-16T11:41:41.375Z,3.30
2019-01-16T11:42:41.353Z,3.80
2019-01-16T11:43:41.351Z,3.30
2019-01-16T11:44:41.325Z,3.50
2019-01-16T11:45:41.323Z,3.90
2019-01-16T11:46:41.326Z,3.60
2019-01-16T11:47:41.300Z,3.70
2019-01-16T11:48:41.283Z,4.20
2019-01-16T11:49:41.295Z,4.00
2019-01-16T11:50:41.261Z,3.80
2019-01-16T11:51:41.299Z,4.00
2019-01-16T11:52:41.246Z,4.50
2019-01-16T11:53:41.228Z,4.30
2019-01-16T11:54:41.217Z,4.20
2019-01-16T11:55:41.209Z,4.50
2019-01-16T11:56:41.199Z,4.50
2019-01-16T11:57:41.215Z,4.20
2019-01-16T11:58:41.178Z,4.30
2019-01-16T11:59:41.164Z,4.20
2019-01-16T12:00:41.151Z,4.30
2019-01-16T12:01:41.139Z,4.20
2019-01-16T12:02:41.144Z,4.30
2019-01-16T12:03:41.133Z,4.40
2019-01-16T12:04:41.110Z,4.20
2019-01-16T12:05:41.101Z,4.80
2019-01-16T12:06:41.083Z,4.50
2019-01-16T12:07:41.089Z,4.50
2019-01-16T12:08:41.060Z,4.50
2019-01-16T12:09:41.066Z,4.60
2019-01-16T12:10:41.044Z,4.80
2019-01-16T12:11:41.034Z,4.60
2019-01-16T12:12:41.034Z,4.90
2019-01-16T12:13:41.008Z,4.50
2019-01-16T12:14:41.001Z,4.30
2019-01-16T12:15:40.991Z,4.60
2019-01-16T12:16:40.988Z,4.90
2019-01-16T12:17:40.984Z,4.50
2019-01-16T12:18:40.953Z,5.30
2019-01-16T12:19:40.941Z,4.70
2019-01-16T12:20:40.930Z,4.60
2019-01-16T12:21:40.922Z,4.70
2019-01-16T12:22:40.932Z,4.60
2019-01-16T12:23:40.900Z,5.50
2019-01-16T12:24:40.886Z,4.60
2019-01-16T12:25:40.883Z,4.90
2019-01-16T12:26:40.871Z,4.70
2019-01-16T12:27:40.875Z,4.90
2019-01-16T12:28:40.850Z,5.00
2019-01-16T12:29:40.832Z,4.50
2019-01-16T12:30:40.822Z,4.70
2019-01-16T12:31:40.815Z,4.90
2019-01-16T12:32:40.815Z,4.70
2019-01-16T12:33:40.795Z,4.80
2019-01-16T12:34:40.789Z,4.60
2019-01-16T12:35:40.767Z,4.70
2019-01-16T12:36:40.763Z,5.00
2019-01-16T12:37:40.768Z,4.60
2019-01-16T12:38:40.743Z,5.30
2019-01-16T12:39:40.723Z,4.90
2019-01-16T12:40:40.722Z,4.60
2019-01-16T12:41:40.703Z,4.80
2019-01-16T12:42:40.707Z,4.90
2019-01-16T12:43:40.680Z,4.30
2019-01-16T12:44:40.669Z,4.80
2019-01-16T12:45:40.658Z,4.70
2019-01-16T12:46:40.658Z,4.70
2019-01-16T12:47:40.636Z,4.60
2019-01-16T12:48:40.670Z,4.50
2019-01-16T12:49:40.628Z,4.70
2019-01-16T12:50:40.603Z,5.10
2019-01-16T12:51:40.591Z,4.20
2019-01-16T12:52:40.589Z,4.80
2019-01-16T12:53:40.586Z,4.70
2019-01-16T12:54:40.559Z,4.50